This is the latest recevied weather packets stored in our database for station/object K4ROM-1. If no packets are shown the sender has not sent any weather packets the latest 10 day(s).
| Time | Temp. | Humidity | Pressure | Rain* | Wind** | Luminosity | Snow |
|---|---|---|---|---|---|---|---|
| 1777906203 | 22.22° C | 45% | 1018.2 hPa | 0 mm | 0 m/s | - | - |
| 1777905603 | 20° C | 47% | 1018.5 hPa | 0 mm | 0 m/s | - | - |
| 1777905003 | 20° C | 50% | 1018.5 hPa | 0 mm | 0 m/s | - | - |
| 1777904403 | 21.11° C | 49% | 1018.6 hPa | 0 mm | 0 m/s | - | - |
| 1777903803 | 18.89° C | 52% | 1018.5 hPa | 0 mm | 0 m/s | - | - |
| 1777903203 | 19.44° C | 53% | 1018.6 hPa | 0 mm | 0 m/s | - | - |
| 1777902603 | 17.78° C | 59% | 1018.6 hPa | 0 mm | 0.89 m/s, 238° | - | - |
| 1777902004 | 17.22° C | 60% | 1018.6 hPa | 0 mm | 0 m/s | - | - |
| 1777901403 | 16.67° C | 65% | 1018.7 hPa | 0 mm | 0 m/s | - | - |
| 1777900803 | 15° C | 71% | 1018.6 hPa | 0 mm | 0.45 m/s, 354° | - | - |
| 1777900222 | 14.44° C | 73% | 1018.5 hPa | 0 mm | 0 m/s | - | - |
| 1777899603 | 15° C | 73% | 1018.3 hPa | 0 mm | 0 m/s | - | - |
| 1777899003 | 14.44° C | 72% | 1018.2 hPa | 0 mm | 0 m/s | - | - |
| 1777898403 | 12.78° C | 79% | 1018 hPa | 0 mm | 0 m/s | - | - |
| 1777897803 | 11.67° C | 81% | 1018.1 hPa | 0 mm | 0 m/s | - | - |
| 1777897203 | 9.44° C | 90% | 1018 hPa | 0 mm | 0 m/s | - | - |
| 1777896603 | 8.33° C | 92% | 1018.3 hPa | 0 mm | 0 m/s | - | - |
| 1777896003 | 7.78° C | 95% | 1018.4 hPa | 0 mm | 0 m/s | - | - |
| 1777895403 | 7.22° C | 95% | 1018.3 hPa | 0 mm | 0 m/s | - | - |
| 1777894803 | 6.67° C | 96% | 1018.3 hPa | 0 mm | 0 m/s | - | - |
| 1777894203 | 6.11° C | 96% | 1018.3 hPa | 0 mm | 0 m/s | - | - |
| 1777893602 | 5.56° C | 97% | 1018.1 hPa | 0 mm | 0 m/s | - | - |
| 1777893003 | 5° C | 97% | 1018.1 hPa | 0 mm | 0 m/s | - | - |
| 1777892403 | 5° C | 97% | 1018.1 hPa | 0 mm | 0 m/s | - | - |
| 1777891804 | 5° C | 97% | 1018 hPa | 0 mm | 0 m/s | - | - |
* Rain latest hour (hover to see other rain measurements)
** Current wind speed in m/s (hover to see current wind gust speed)